Time;durP1;ratioP1;P1;durP2;ratioP2;P2;SDS_P1;SDS_P2;PMS_P1;PMS_P2;Temp;Humidity;BMP_temperature;BMP_pressure;BME280_temperature;BME280_humidity;BME280_pressure;Samples;Min_cycle;Max_cycle;Signal;HPM_P1;HPM_P2
2022/08/11 00:01:54;;;;;;;3.20;1.90;;;;;;;26.86;45.14;98866.38;6101487;23;20207;-91
2022/08/11 00:04:25;;;;;;;5.77;2.97;;;;;;;26.84;45.14;98868.44;6125958;23;20160;-90
2022/08/11 00:06:52;;;;;;;3.10;1.93;;;;;;;26.75;45.57;98866.88;6102117;23;20538;-90
2022/08/11 00:09:32;;;;;;;3.73;2.03;;;;;;;26.63;45.83;98869.19;6126705;23;20238;-90
2022/08/11 00:12:02;;;;;;;4.83;2.07;;;;;;;26.62;45.99;98872.94;6127652;23;20152;-90
2022/08/11 00:14:33;;;;;;;3.27;1.93;;;;;;;26.63;45.99;98869.19;6101280;23;20155;-90
2022/08/11 00:17:03;;;;;;;4.23;2.03;;;;;;;26.51;46.24;98867.19;6126827;23;20152;-90
2022/08/11 00:19:36;;;;;;;7.53;1.93;;;;;;;26.45;46.25;98870.63;6101631;23;20152;-90
2022/08/11 00:22:04;;;;;;;3.70;1.70;;;;;;;26.47;46.37;98868.56;6127189;23;20140;-89
2022/08/11 00:24:49;;;;;;;;;;;;;;;;;;;;;
2022/08/11 00:27:15;;;;;;;4.53;2.40;;;;;;;26.43;46.15;98867.28;6127578;23;20227;-90
2022/08/11 00:29:55;;;;;;;4.47;2.00;;;;;;;26.37;46.64;98871.56;6101054;23;20631;-90
2022/08/11 00:32:23;;;;;;;3.53;1.70;;;;;;;26.32;46.48;98873.97;6126718;23;20136;-91
2022/08/11 00:34:49;;;;;;;3.10;1.50;;;;;;;26.29;46.99;98876.19;6100835;23;20155;-90
2022/08/11 00:37:23;;;;;;;4.97;2.40;;;;;;;26.29;46.45;98876.19;6101054;23;20151;-90
2022/08/11 00:39:54;;;;;;;3.57;2.07;;;;;;;26.28;46.68;98869.19;6101150;23;20147;-91
2022/08/11 00:42:57;;;;;;;3.40;2.20;;;;;;;26.29;46.49;98868.13;6101085;23;20148;-90
2022/08/11 00:45:46;;;;;;;5.13;2.60;;;;;;;26.22;46.66;98868.91;6100970;23;20238;-91
2022/08/11 00:48:32;;;;;;;4.70;2.27;;;;;;;26.06;47.43;98866.38;6101427;23;20262;-90
2022/08/11 00:51:04;;;;;;;4.30;2.37;;;;;;;26.06;47.58;98870.91;6100950;23;20171;-90
2022/08/11 00:54:06;;;;;;;5.10;2.40;;;;;;;26.01;47.91;98868.78;6127167;23;20600;-90
2022/08/11 00:57:02;;;;;;;6.10;2.50;;;;;;;26.00;48.27;98874.31;6101027;23;20162;-90
2022/08/11 00:59:52;;;;;;;4.77;2.20;;;;;;;25.91;47.91;98868.22;6125706;23;20156;-90
2022/08/11 01:03:13;;;;;;;5.23;2.37;;;;;;;25.84;48.45;98864.59;6101458;23;20152;-90
2022/08/11 01:06:03;;;;;;;3.90;2.10;;;;;;;25.80;48.67;98871.34;6125214;23;20527;-88
2022/08/11 01:09:06;;;;;;;3.60;2.00;;;;;;;25.64;49.51;98874.19;6126931;23;20168;-89
2022/08/11 01:12:03;;;;;;;5.20;2.53;;;;;;;25.65;49.65;98875.88;6126313;23;20230;-89
2022/08/11 01:14:47;;;;;;;4.67;2.70;;;;;;;25.60;49.40;98870.22;6126309;23;20163;-90
2022/08/11 01:17:56;;;;;;;3.80;2.23;;;;;;;25.53;49.60;98869.25;6100759;23;20147;-90
2022/08/11 01:20:48;;;;;;;3.37;1.80;;;;;;;25.39;49.90;98868.16;6126469;23;20140;-90
2022/08/11 01:23:53;;;;;;;3.83;2.37;;;;;;;25.46;49.77;98868.31;6100784;23;20244;-89
2022/08/11 01:26:34;;;;;;;3.60;2.03;;;;;;;25.47;49.94;98870.00;6126212;23;20215;-89
2022/08/11 01:29:28;;;;;;;4.37;2.50;;;;;;;25.34;49.86;98865.19;6101009;23;20203;-89
2022/08/11 01:32:19;;;;;;;4.10;2.10;;;;;;;25.34;50.10;98875.13;6101701;23;20163;-90
2022/08/11 01:35:03;;;;;;;3.80;1.77;;;;;;;25.35;50.40;98866.03;6126647;23;20134;-91
2022/08/11 01:38:06;;;;;;;5.57;3.07;;;;;;;25.37;50.34;98869.38;6126311;23;20146;-90
2022/08/11 01:41:12;;;;;;;8.53;2.70;;;;;;;25.41;50.08;98876.06;6100626;23;20190;-90
2022/08/11 01:47:49;;;;;;;5.03;2.33;;;;;;;25.33;50.23;98870.75;6127213;23;20658;-89
2022/08/11 01:50:10;;;;;;;7.37;2.27;;;;;;;25.31;50.07;98870.94;6127943;23;20587;-88
2022/08/11 01:53:02;;;;;;;6.40;2.43;;;;;;;25.32;49.89;98869.91;6102671;23;20242;-90
2022/08/11 01:55:59;;;;;;;3.73;2.10;;;;;;;25.31;50.33;98872.78;6102575;23;20619;-89
2022/08/11 01:58:35;;;;;;;4.60;2.27;;;;;;;25.29;50.25;98877.50;6128050;23;20204;-91
2022/08/11 02:01:27;;;;;;;3.47;2.10;;;;;;;25.20;50.75;98878.56;6128060;23;20140;-90
2022/08/11 02:04:28;;;;;;;3.60;1.87;;;;;;;25.15;50.89;98870.22;6102928;23;20572;-90
2022/08/11 02:07:31;;;;;;;6.23;1.70;;;;;;;25.15;50.67;98871.06;6128721;23;20163;-90
2022/08/11 02:13:36;;;;;;;5.47;2.23;;;;;;;25.12;50.80;98859.84;6128017;23;20483;-90
2022/08/11 02:16:27;;;;;;;5.07;2.10;;;;;;;25.13;50.61;98861.53;6057282;23;20159;-90
2022/08/11 02:25:34;;;;;;;2.97;1.37;;;;;;;25.17;50.53;98868.19;6128474;23;20242;-90
2022/08/11 02:28:20;;;;;;;7.07;2.50;;;;;;;25.23;50.27;98864.81;6128278;23;20182;-90
2022/08/11 02:34:15;;;;;;;3.10;1.70;;;;;;;25.24;50.06;98853.88;6128231;23;20150;-90
2022/08/11 02:36:54;;;;;;;3.47;1.73;;;;;;;25.22;50.13;98849.72;6103653;23;20152;-90
2022/08/11 02:39:24;;;;;;;6.37;1.60;;;;;;;25.13;50.40;98850.81;6128131;23;20207;-90
2022/08/11 02:42:21;;;;;;;4.43;1.90;;;;;;;25.14;50.50;98844.41;6102086;23;20640;-90
2022/08/11 02:45:11;;;;;;;3.87;1.83;;;;;;;25.12;50.48;98852.66;6102194;23;20148;-90
2022/08/11 02:51:23;;;;;;;4.87;1.70;;;;;;;25.19;50.26;98864.31;6127798;23;20218;-90
2022/08/11 02:54:07;;;;;;;3.20;2.00;;;;;;;25.20;50.09;98868.69;6127637;23;20148;-90
2022/08/11 02:56:51;;;;;;;4.07;1.63;;;;;;;25.29;49.59;98872.94;6101991;23;20479;-90
2022/08/11 03:00:11;;;;;;;8.27;2.20;;;;;;;25.27;49.81;98868.78;6102109;23;20156;-90
2022/08/11 03:03:01;;;;;;;3.70;2.17;;;;;;;25.34;50.04;98872.44;6039116;23;20170;-90
2022/08/11 03:05:47;;;;;;;4.57;2.30;;;;;;;25.24;49.88;98863.78;6099436;23;20160;-90
2022/08/11 03:08:17;;;;;;;3.80;2.00;;;;;;;25.25;49.90;98865.44;6127881;23;20194;-90
2022/08/11 03:17:03;;;;;;;3.03;1.60;;;;;;;25.00;51.01;98868.31;6127420;23;20575;-90
2022/08/11 03:20:06;;;;;;;5.83;2.27;;;;;;;25.05;51.00;98868.59;6102244;23;20167;-90
2022/08/11 03:22:56;;;;;;;4.30;2.70;;;;;;;24.92;52.04;98870.25;6101910;23;20548;-90
2022/08/11 03:25:35;;;;;;;3.43;1.80;;;;;;;24.98;51.85;98875.72;6101748;23;20494;-90
2022/08/11 03:28:27;;;;;;;5.80;2.47;;;;;;;25.01;51.59;98872.69;6102739;23;20469;-90
2022/08/11 03:30:55;;;;;;;4.50;2.57;;;;;;;25.13;51.44;98880.31;6127610;23;20203;-90
2022/08/11 03:36:33;;;;;;;4.60;2.47;;;;;;;25.12;52.02;98881.31;6127302;23;20218;-90
2022/08/11 03:39:07;;;;;;;7.43;2.93;;;;;;;25.12;52.02;98878.63;6127172;23;20210;-89
2022/08/11 03:42:09;;;;;;;9.57;2.33;;;;;;;25.15;52.11;98880.97;6101665;23;20152;-90
2022/08/11 03:44:54;;;;;;;3.70;1.80;;;;;;;25.29;51.53;98872.94;6101965;23;20147;-89
2022/08/11 03:47:44;;;;;;;4.80;2.17;;;;;;;25.34;51.60;98883.97;6125091;23;20218;-90
2022/08/11 03:50:23;;;;;;;3.80;2.37;;;;;;;25.34;51.67;98881.28;6099180;23;20191;-89
2022/08/11 03:53:27;;;;;;;4.03;2.40;;;;;;;25.32;51.80;98882.50;6124900;23;20136;-89
2022/08/11 03:56:14;;;;;;;4.87;2.60;;;;;;;25.26;52.06;98883.22;6125781;23;20420;-90
2022/08/11 03:58:54;;;;;;;8.20;3.00;;;;;;;25.34;51.58;98886.66;6099014;23;20154;-90
2022/08/11 04:01:54;;;;;;;6.47;2.67;;;;;;;25.41;51.23;98884.09;6099856;23;20631;-89
2022/08/11 04:05:06;;;;;;;5.20;2.20;;;;;;;25.44;51.47;98895.31;6101412;23;20530;-90
2022/08/11 04:08:08;;;;;;;11.17;2.87;;;;;;;25.52;51.30;98887.22;6093768;23;20207;-90
2022/08/11 04:10:52;;;;;;;3.60;2.27;;;;;;;25.53;51.55;98893.41;6126957;23;20174;-89
2022/08/11 04:15:58;;;;;;;4.53;2.23;;;;;;;25.57;51.48;98897.44;6102391;23;20222;-89
2022/08/11 04:16:59;;;;;;;5.07;2.03;;;;;;;25.55;51.47;98910.19;6126816;23;20140;-90
2022/08/11 04:20:06;;;;;;;3.63;2.33;;;;;;;25.47;51.89;98918.31;6127331;23;20152;-91
2022/08/11 04:23:02;;;;;;;4.43;2.10;;;;;;;25.55;51.62;98913.69;6038335;23;20184;-90
2022/08/11 04:26:04;;;;;;;3.97;2.50;;;;;;;25.65;51.15;98914.28;6127390;23;20700;-90
2022/08/11 04:29:02;;;;;;;4.60;2.13;;;;;;;25.67;51.69;98914.09;6126792;23;20179;-90
2022/08/11 04:31:58;;;;;;;4.50;2.80;;;;;;;25.56;52.09;98919.91;6101292;23;20152;-90
2022/08/11 04:34:48;;;;;;;4.30;2.90;;;;;;;25.50;52.15;98912.56;6126389;23;20160;-90
2022/08/11 04:37:33;;;;;;;5.93;2.47;;;;;;;25.63;52.74;98913.63;6101146;23;20140;-90
2022/08/11 04:40:35;;;;;;;5.67;2.23;;;;;;;25.76;52.01;98922.94;6126595;23;20522;-90
2022/08/11 04:43:19;;;;;;;4.63;2.60;;;;;;;25.81;52.68;98926.75;6101134;23;20491;-90
2022/08/11 04:46:13;;;;;;;4.73;1.90;;;;;;;25.86;51.09;98924.34;6101036;23;20199;-90
2022/08/11 05:01:40;;;;;;;3.60;1.33;;;;;;;26.17;48.37;98927.75;6126901;23;20219;-90
2022/08/11 05:07:30;;;;;;;4.13;0.90;;;;;;;26.20;46.82;98930.03;6126674;23;20151;-91
2022/08/11 05:10:52;;;;;;;2.60;1.40;;;;;;;26.19;46.24;98930.22;6127005;23;20167;-90
2022/08/11 05:34:52;;;;;;;2.60;1.53;;;;;;;26.12;45.91;98938.22;6126372;23;20147;-90
2022/08/11 05:37:38;;;;;;;5.73;1.07;;;;;;;26.13;46.60;98934.47;6126308;23;20136;-89
2022/08/11 05:57:35;;;;;;;4.27;1.07;;;;;;;26.75;43.83;98917.97;6126598;23;20526;-89
2022/08/11 06:00:10;;;;;;;2.63;0.93;;;;;;;26.87;44.34;98921.84;6126739;23;20136;-90
2022/08/11 06:03:00;;;;;;;1.73;0.90;;;;;;;26.94;43.71;98924.63;6126506;23;20261;-89
2022/08/11 06:05:37;;;;;;;1.97;1.00;;;;;;;27.13;43.45;98921.31;6100645;23;20572;-89
2022/08/11 06:08:10;;;;;;;2.37;0.87;;;;;;;27.08;41.69;98919.19;6126429;23;20615;-90
2022/08/11 06:10:41;;;;;;;2.33;0.98;;;;;;;27.14;41.70;98925.69;6126441;23;20501;-89
2022/08/11 06:13:09;;;;;;;2.20;1.07;;;;;;;27.16;40.92;98924.47;6126013;23;20179;-90
2022/08/11 06:15:48;;;;;;;1.93;0.97;;;;;;;27.31;42.23;98927.94;6100483;23;20218;-89
2022/08/11 06:18:23;;;;;;;1.53;0.70;;;;;;;27.49;41.10;98922.09;6126385;23;20147;-91
2022/08/11 06:20:56;;;;;;;2.08;0.90;;;;;;;27.42;41.38;98927.44;6126583;23;20140;-94
2022/08/11 06:23:30;;;;;;;1.67;0.83;;;;;;;27.59;40.22;98919.13;6126668;23;20158;-90
2022/08/11 06:25:58;;;;;;;5.47;0.75;;;;;;;27.80;40.56;98927.16;6126417;23;20168;-91
2022/08/11 06:28:34;;;;;;;1.52;0.90;;;;;;;27.99;40.29;98921.91;6126356;23;20180;-90
2022/08/11 06:31:10;;;;;;;1.27;0.70;;;;;;;28.14;40.76;98913.75;6127193;23;20199;-90
2022/08/11 06:34:03;;;;;;;2.05;0.88;;;;;;;28.41;40.67;98910.16;6127956;23;20139;-91
2022/08/11 06:36:39;;;;;;;1.77;0.77;;;;;;;28.74;39.77;98909.53;6128223;23;20140;-90
2022/08/11 06:39:27;;;;;;;2.63;1.05;;;;;;;29.02;38.33;98913.78;6102484;23;20227;-90
2022/08/11 06:42:26;;;;;;;0.80;0.52;;;;;;;29.29;39.10;98909.31;6128483;23;20132;-89
2022/08/11 06:45:11;;;;;;;1.77;1.00;;;;;;;29.43;38.45;98915.56;6098079;23;20187;-89
2022/08/11 06:47:44;;;;;;;1.67;0.65;;;;;;;29.60;37.72;98912.25;6102804;23;20254;-89
2022/08/11 06:52:59;;;;;;;1.52;0.80;;;;;;;29.93;36.88;98916.84;6128062;23;20155;-90
2022/08/11 07:01:14;;;;;;;1.88;0.60;;;;;;;30.36;35.62;98907.22;6127698;23;20162;-90
2022/08/11 07:03:44;;;;;;;1.67;0.70;;;;;;;30.25;35.39;98905.13;6127653;23;20139;-90
2022/08/11 07:06:38;;;;;;;2.40;0.85;;;;;;;30.30;36.00;98916.13;6102736;23;20186;-90
2022/08/11 07:15:49;;;;;;;1.77;0.65;;;;;;;30.64;34.67;98909.63;6127643;23;20151;-92
2022/08/11 07:30:07;;;;;;;1.65;0.80;;;;;;;31.17;34.51;98921.88;6127764;23;20182;-90
2022/08/11 07:32:49;;;;;;;5.15;0.98;;;;;;;31.34;34.52;98916.78;6101788;23;20163;-91
2022/08/11 07:35:32;;;;;;;1.75;0.70;;;;;;;31.43;34.40;98920.88;6127350;23;20140;-90
2022/08/11 07:38:29;;;;;;;3.17;0.80;;;;;;;31.31;34.06;98911.81;6102222;23;20140;-90
2022/08/11 07:41:14;;;;;;;1.88;0.77;;;;;;;31.05;35.04;98917.38;6127900;23;20156;-91
2022/08/11 07:43:51;;;;;;;1.02;0.60;;;;;;;31.21;33.80;98914.97;6127557;23;20136;-92
2022/08/11 07:54:46;;;;;;;1.85;1.00;;;;;;;30.93;34.42;98904.53;6127436;23;20143;-90
2022/08/11 08:19:19;;;;;;;3.22;1.02;;;;;;;32.49;33.60;98894.50;6126627;23;20223;-89
2022/08/11 08:21:47;;;;;;;1.73;0.73;;;;;;;32.87;33.02;98897.81;6100934;23;20170;-90
2022/08/11 08:24:14;;;;;;;1.10;0.60;;;;;;;33.09;31.96;98896.28;6126586;23;20155;-91
2022/08/11 08:27:00;;;;;;;0.98;0.57;;;;;;;33.22;31.28;98893.38;6126786;23;20148;-90
2022/08/11 08:32:20;;;;;;;1.55;0.60;;;;;;;33.43;30.68;98886.56;6126832;23;20150;-93
2022/08/11 08:34:55;;;;;;;4.22;1.40;;;;;;;33.64;31.04;98887.94;6100942;23;20171;-92
2022/08/11 08:37:24;;;;;;;1.55;0.90;;;;;;;33.62;31.38;98890.06;6100818;23;20223;-91
2022/08/11 08:39:50;;;;;;;1.20;0.70;;;;;;;33.67;31.63;98888.31;6126882;23;20232;-90
2022/08/11 08:42:25;;;;;;;1.63;0.70;;;;;;;33.96;30.42;98881.91;6100836;23;20195;-90
2022/08/11 08:45:02;;;;;;;1.73;0.80;;;;;;;34.06;30.21;98883.22;6125417;23;20179;-90
2022/08/11 08:47:34;;;;;;;2.47;0.82;;;;;;;34.30;30.30;98882.19;6126627;23;20282;-91
2022/08/11 08:50:05;;;;;;;2.28;0.77;;;;;;;34.22;29.73;98885.25;6126501;23;20674;-92
2022/08/11 08:52:39;;;;;;;3.25;1.33;;;;;;;34.16;30.29;98878.88;6101195;23;20584;-91
2022/08/11 08:55:11;;;;;;;1.92;0.70;;;;;;;34.28;31.14;98874.22;6125011;23;20151;-90
2022/08/11 08:57:42;;;;;;;0.85;0.43;;;;;;;34.26;29.60;98868.22;6125875;23;20247;-90
2022/08/11 09:00:14;;;;;;;1.40;0.82;;;;;;;34.26;29.58;98857.31;6100866;23;20191;-90
2022/08/11 09:02:43;;;;;;;3.33;0.75;;;;;;;34.23;29.93;98865.13;6100907;23;20537;-92
2022/08/11 09:05:10;;;;;;;1.58;0.70;;;;;;;34.10;29.36;98860.78;6101330;23;20258;-91
2022/08/11 09:07:39;;;;;;;1.00;0.52;;;;;;;34.23;30.12;98855.06;6126368;23;20152;-91
2022/08/11 09:10:07;;;;;;;1.50;0.65;;;;;;;34.38;30.92;98852.66;6126214;23;20211;-90
2022/08/11 09:12:35;;;;;;;1.80;0.77;;;;;;;34.62;29.49;98847.22;6126191;23;20170;-90
2022/08/11 09:15:04;;;;;;;2.95;0.63;;;;;;;34.41;29.45;98844.03;6126203;23;20175;-90
2022/08/11 09:17:39;;;;;;;1.15;0.73;;;;;;;34.69;29.23;98853.34;6126640;23;20152;-90
2022/08/11 09:20:28;;;;;;;1.35;0.65;;;;;;;34.84;28.82;98850.91;6126125;23;20138;-90
2022/08/11 09:28:31;;;;;;;1.27;0.65;;;;;;;35.04;27.66;98845.81;6126359;23;20186;-90
2022/08/11 09:31:00;;;;;;;1.45;0.65;;;;;;;35.10;29.49;98848.44;6124997;23;20226;-90
2022/08/11 09:33:28;;;;;;;1.75;0.70;;;;;;;34.88;28.14;98830.28;6100793;23;20219;-91
2022/08/11 09:35:56;;;;;;;1.88;0.75;;;;;;;35.04;27.97;98843.94;6100568;23;20160;-91
2022/08/11 09:41:13;;;;;;;1.52;0.80;;;;;;;35.24;28.97;98843.50;6126116;23;20164;-91
2022/08/11 09:46:31;;;;;;;1.48;0.85;;;;;;;35.31;27.36;98833.28;6125626;23;20147;-91
2022/08/11 09:49:04;;;;;;;1.52;0.65;;;;;;;35.34;27.78;98830.06;6126078;23;20214;-92
2022/08/11 09:51:32;;;;;;;2.08;0.73;;;;;;;35.40;27.95;98834.53;6126186;23;20176;-91
2022/08/11 09:54:07;;;;;;;1.90;1.15;;;;;;;35.63;27.72;98828.94;6125231;23;20156;-90
2022/08/11 09:59:42;;;;;;;1.30;0.60;;;;;;;35.70;26.90;98823.28;6126398;23;20150;-92
2022/08/11 10:02:28;;;;;;;1.17;0.63;;;;;;;36.09;26.35;98813.22;6087153;23;20583;-89
2022/08/11 10:08:13;;;;;;;1.05;0.55;;;;;;;36.08;26.62;98808.88;6127081;23;20215;-90
2022/08/11 10:10:48;;;;;;;1.90;0.40;;;;;;;36.10;26.20;98812.16;6125559;23;20152;-90
2022/08/11 10:15:32;;;;;;;5.55;0.98;;;;;;;36.06;26.75;98817.28;6128004;23;20219;-90
2022/08/11 10:16:28;;;;;;;1.67;0.60;;;;;;;36.28;26.37;98814.59;6127882;23;20215;-89
2022/08/11 10:27:52;;;;;;;1.13;0.50;;;;;;;36.04;26.32;98796.78;6128021;23;20210;-90
2022/08/11 10:35:53;;;;;;;1.65;0.70;;;;;;;36.38;25.42;98795.59;6127470;23;20207;-91
2022/08/11 10:38:29;;;;;;;2.33;0.52;;;;;;;36.44;25.98;98800.03;6127652;23;20151;-91
2022/08/11 10:43:45;;;;;;;1.00;0.40;;;;;;;36.98;24.56;98792.75;6127750;23;20178;-91
2022/08/11 10:49:08;;;;;;;1.13;0.50;;;;;;;37.13;24.68;98773.78;6127595;23;20271;-92
2022/08/11 11:00:25;;;;;;;1.88;0.88;;;;;;;36.99;25.26;98768.97;6127567;23;20587;-90
2022/08/11 11:02:52;;;;;;;0.82;0.40;;;;;;;36.82;25.47;98767.16;6096555;23;20159;-90
2022/08/11 11:05:33;;;;;;;1.63;0.50;;;;;;;37.20;24.66;98771.63;6101587;23;20163;-91
2022/08/11 11:10:57;;;;;;;2.20;0.90;;;;;;;37.02;25.32;98754.78;6127637;23;20171;-91
2022/08/11 11:19:50;;;;;;;1.95;0.80;;;;;;;36.74;24.49;98753.94;5983558;23;20200;-90
2022/08/11 11:22:47;;;;;;;2.03;0.80;;;;;;;37.06;24.38;98755.91;6010573;23;20138;-93
2022/08/11 11:26:13;;;;;;;2.15;1.00;;;;;;;37.52;24.02;98749.75;6010539;23;20139;-90
2022/08/11 11:29:15;;;;;;;1.17;0.40;;;;;;;37.91;23.13;98744.78;6041187;23;20216;-90
2022/08/11 11:32:18;;;;;;;0.82;0.45;;;;;;;38.07;23.81;98750.09;6096644;23;20556;-91
2022/08/11 11:38:12;;;;;;;0.98;0.50;;;;;;;38.22;23.72;98737.53;6119046;23;20164;-90
2022/08/11 11:40:39;;;;;;;1.13;0.50;;;;;;;38.27;23.70;98746.59;6126505;23;20575;-90
2022/08/11 11:43:10;;;;;;;0.98;0.60;;;;;;;38.25;23.24;98735.09;6126973;23;20600;-90
2022/08/11 11:45:40;;;;;;;1.60;0.63;;;;;;;38.38;22.85;98731.03;6101437;23;20214;-90
2022/08/11 11:48:06;;;;;;;2.03;1.35;;;;;;;38.38;23.46;98731.03;6126706;23;20178;-89
2022/08/11 11:50:36;;;;;;;1.48;0.80;;;;;;;38.52;23.29;98727.53;6126864;23;20180;-90
2022/08/11 11:53:21;;;;;;;1.10;0.60;;;;;;;38.65;23.82;98729.75;6126899;23;20218;-91
2022/08/11 11:55:48;;;;;;;1.35;0.50;;;;;;;38.91;22.88;98729.78;6101417;23;20218;-91
2022/08/11 12:04:06;;;;;;;1.25;0.70;;;;;;;38.34;22.96;98713.50;6038053;23;20565;-89
2022/08/11 12:06:34;;;;;;;0.98;0.50;;;;;;;38.41;23.90;98705.84;6110807;23;20167;-91
2022/08/11 12:09:09;;;;;;;1.20;0.50;;;;;;;38.73;23.07;98710.00;6101000;23;20571;-90
2022/08/11 12:14:22;;;;;;;0.95;0.50;;;;;;;38.77;23.58;98713.06;6127059;23;20216;-90
2022/08/11 12:16:48;;;;;;;1.60;0.55;;;;;;;38.75;22.69;98708.94;6126914;23;20148;-91
2022/08/11 12:19:23;;;;;;;0.98;0.40;;;;;;;38.88;21.59;98703.75;6101178;23;20450;-90
2022/08/11 12:27:35;;;;;;;1.17;0.60;;;;;;;38.50;22.89;98693.25;6125767;23;20210;-91
2022/08/11 12:30:10;;;;;;;1.35;0.70;;;;;;;38.63;22.44;98689.97;6125923;23;20259;-90
2022/08/11 12:32:39;;;;;;;1.20;0.63;;;;;;;38.90;21.99;98690.59;6126832;23;20210;-91
2022/08/11 12:35:07;;;;;;;0.90;0.45;;;;;;;38.86;22.39;98695.00;6100889;23;20596;-89
2022/08/11 12:37:40;;;;;;;1.38;0.57;;;;;;;38.51;22.16;98686.69;6127084;23;20230;-89
2022/08/11 12:45:59;;;;;;;1.27;0.60;;;;;;;37.26;23.69;98685.00;6126280;23;20143;-90
2022/08/11 12:52:26;;;;;;;2.78;0.60;;;;;;;37.17;23.92;98664.72;6126536;23;20150;-91
2022/08/11 12:54:56;;;;;;;1.35;0.68;;;;;;;37.19;23.32;98668.81;6120944;23;20155;-92
2022/08/11 13:06:06;;;;;;;1.33;0.52;;;;;;;37.97;22.05;98669.84;6126283;23;20150;-92
2022/08/11 13:08:35;;;;;;;1.70;0.70;;;;;;;37.89;21.86;98673.94;6100705;23;20186;-92
2022/08/11 13:13:51;;;;;;;1.10;0.50;;;;;;;37.78;22.19;98671.38;6126464;23;20636;-90
2022/08/11 13:16:21;;;;;;;0.90;0.55;;;;;;;38.20;22.36;98663.88;6100684;23;20151;-91
2022/08/11 13:18:49;;;;;;;0.70;0.40;;;;;;;38.39;21.77;98666.97;6100663;23;20144;-91
2022/08/11 13:21:16;;;;;;;1.20;0.50;;;;;;;38.17;22.61;98660.84;6126234;23;20157;-92
2022/08/11 13:23:42;;;;;;;1.48;0.60;;;;;;;38.48;22.11;98668.06;6101143;23;20160;-92
2022/08/11 13:26:28;;;;;;;0.82;0.50;;;;;;;38.71;21.69;98670.25;6100338;23;20485;-93
2022/08/11 13:29:02;;;;;;;1.33;0.50;;;;;;;38.75;21.46;98665.94;6126725;23;20593;-93
2022/08/11 13:31:29;;;;;;;2.70;0.50;;;;;;;37.99;22.83;98670.38;6100911;23;20590;-91
2022/08/11 13:33:56;;;;;;;1.35;0.57;;;;;;;37.94;22.17;98665.72;6099157;23;20164;-92
2022/08/11 13:36:27;;;;;;;1.00;0.47;;;;;;;37.85;22.61;98667.28;6126165;23;20222;-92
2022/08/11 13:38:57;;;;;;;1.10;0.50;;;;;;;37.62;22.67;98667.75;6126308;23;20144;-92
2022/08/11 13:41:38;;;;;;;0.80;0.50;;;;;;;37.30;23.20;98665.06;6102036;23;20156;-92
2022/08/11 13:44:11;;;;;;;1.23;0.73;;;;;;;37.31;23.30;98663.16;6129485;23;20136;-91
2022/08/11 13:46:40;;;;;;;0.75;0.47;;;;;;;36.48;23.61;98658.38;6129640;23;20146;-91
2022/08/11 13:49:08;;;;;;;1.13;0.40;;;;;;;36.28;24.33;98659.81;6103665;23;20191;-92
2022/08/11 13:51:38;;;;;;;0.98;0.52;;;;;;;36.51;24.42;98655.97;6103861;23;20162;-92
2022/08/11 13:54:10;;;;;;;1.42;0.70;;;;;;;36.16;24.62;98663.78;6129950;23;20136;-93
2022/08/11 13:56:43;;;;;;;1.20;0.52;;;;;;;36.26;24.70;98655.69;6129600;23;20152;-91
2022/08/11 13:59:32;;;;;;;1.65;0.65;;;;;;;36.13;24.98;98653.38;6104164;23;20143;-90
2022/08/11 14:02:17;;;;;;;2.90;0.57;;;;;;;35.94;25.44;98652.03;6085542;23;20156;-93
2022/08/11 14:04:55;;;;;;;1.88;1.00;;;;;;;35.86;25.41;98644.28;6104518;23;20166;-91
2022/08/11 14:07:33;;;;;;;3.92;1.17;;;;;;;35.56;25.38;98653.75;6103621;23;20586;-91
2022/08/11 14:10:02;;;;;;;3.35;1.70;;;;;;;35.53;25.51;98650.69;6129018;23;20756;-91
2022/08/11 14:15:33;;;;;;;3.40;1.67;;;;;;;35.88;25.45;98650.34;6129453;23;20558;-91
2022/08/11 14:18:10;;;;;;;3.45;1.38;;;;;;;35.37;25.63;98654.28;6129051;23;20140;-91
2022/08/11 14:23:30;;;;;;;5.63;1.13;;;;;;;34.88;26.24;98656.78;6129510;23;20202;-90
2022/08/11 14:28:43;;;;;;;5.03;2.00;;;;;;;34.88;26.34;98661.41;6129172;23;20211;-91
2022/08/11 14:31:17;;;;;;;2.92;1.40;;;;;;;34.96;26.11;98659.09;6103880;23;20602;-93
2022/08/11 14:33:44;;;;;;;2.05;1.30;;;;;;;35.12;25.96;98655.56;6103612;23;20159;-91
2022/08/11 14:36:13;;;;;;;2.72;1.30;;;;;;;35.27;26.30;98649.50;6128212;23;20154;-90
2022/08/11 14:38:41;;;;;;;2.97;1.33;;;;;;;35.52;25.70;98649.84;6129266;23;20148;-91
2022/08/11 14:47:04;;;;;;;3.00;1.55;;;;;;;35.83;25.03;98651.09;6129389;23;20241;-91
2022/08/11 14:49:41;;;;;;;2.08;0.80;;;;;;;35.83;25.63;98652.97;6102897;23;20643;-91
2022/08/11 14:52:16;;;;;;;3.13;1.13;;;;;;;35.98;25.13;98651.25;6102997;23;20576;-91
2022/08/11 14:57:34;;;;;;;2.03;0.70;;;;;;;35.68;25.13;98651.72;6127598;23;20283;-91
2022/08/11 15:00:03;;;;;;;1.30;0.50;;;;;;;35.59;25.60;98642.34;6078200;23;20152;-91
2022/08/11 15:05:17;;;;;;;2.08;0.70;;;;;;;35.44;26.04;98649.47;6127519;23;20148;-91
2022/08/11 15:07:45;;;;;;;0.98;0.40;;;;;;;35.32;26.32;98646.03;6127398;23;20224;-92
2022/08/11 15:10:12;;;;;;;1.83;0.90;;;;;;;35.39;26.28;98655.66;6126899;23;20186;-91
2022/08/11 15:12:43;;;;;;;2.97;0.60;;;;;;;35.26;26.15;98652.47;6127201;23;20651;-91
2022/08/11 15:18:07;;;;;;;1.40;0.70;;;;;;;35.16;26.38;98661.34;6127293;23;20221;-91
